Time;durP1;ratioP1;P1;durP2;ratioP2;P2;SDS_P1;SDS_P2;PMS_P1;PMS_P2;Temp;Humidity;BMP_temperature;BMP_pressure;BME280_temperature;BME280_humidity;BME280_pressure;Samples;Min_cycle;Max_cycle;Signal;HPM_P1;HPM_P2
2022/02/13 00:02:07;;;;;;;14.67;5.80;;;;;;;;;;5051500;28;20182;-69
2022/02/13 00:04:33;;;;;;;10.13;6.13;;;;;;;;;;5051491;28;20615;-69
2022/02/13 00:06:58;;;;;;;11.73;6.00;;;;;;;;;;5050305;28;20560;-68
2022/02/13 00:09:23;;;;;;;9.73;6.60;;;;;;;;;;5052631;28;20190;-67
2022/02/13 00:11:48;;;;;;;9.30;5.93;;;;;;;;;;5051358;28;20704;-68
2022/02/13 00:14:14;;;;;;;8.80;5.90;;;;;;;;;;5052535;28;20182;-68
2022/02/13 00:16:39;;;;;;;14.70;6.70;;;;;;;;;;5050627;28;20200;-68
2022/02/13 00:19:04;;;;;;;11.07;6.53;;;;;;;;;;5051038;28;20291;-70
2022/02/13 00:21:30;;;;;;;11.77;7.10;;;;;;;;;;5050400;28;20262;-68
2022/02/13 00:23:55;;;;;;;11.43;6.60;;;;;;;;;;5049932;28;20185;-68
2022/02/13 00:26:20;;;;;;;9.90;5.93;;;;;;;;;;5051280;28;20182;-68
2022/02/13 00:28:45;;;;;;;12.03;6.33;;;;;;;;;;5051392;28;20196;-68
2022/02/13 00:31:11;;;;;;;11.73;6.43;;;;;;;;;;5052138;28;20193;-70
2022/02/13 00:33:36;;;;;;;13.73;6.87;;;;;;;;;;5048351;28;20264;-67
2022/02/13 00:36:01;;;;;;;11.93;6.77;;;;;;;;;;5049999;28;20262;-67
2022/02/13 00:38:27;;;;;;;16.07;6.63;;;;;;;;;;5033044;28;20259;-67
2022/02/13 00:40:52;;;;;;;10.70;5.53;;;;;;;;;;5050596;28;20261;-67
2022/02/13 00:43:17;;;;;;;10.20;6.93;;;;;;;;;;5051864;28;20181;-67
2022/02/13 00:45:42;;;;;;;10.27;6.37;;;;;;;;;;5052949;28;20276;-68
2022/02/13 00:48:10;;;;;;;10.40;6.30;;;;;;;;;;5051740;28;20196;-67
2022/02/13 00:50:35;;;;;;;9.33;6.13;;;;;;;;;;5051144;28;20640;-68
2022/02/13 00:53:00;;;;;;;10.60;6.13;;;;;;;;;;5051733;28;20200;-70
2022/02/13 00:55:26;;;;;;;14.07;6.37;;;;;;;;;;5051028;28;20271;-67
2022/02/13 00:57:51;;;;;;;12.27;6.90;;;;;;;;;;5051820;28;20232;-69
2022/02/13 01:00:17;;;;;;;9.53;5.90;;;;;;;;;;5050596;28;20205;-69
2022/02/13 01:02:42;;;;;;;12.03;6.27;;;;;;;;;;5050571;28;20272;-67
2022/02/13 01:05:07;;;;;;;14.67;6.37;;;;;;;;;;5049291;28;20213;-67
2022/02/13 01:07:32;;;;;;;11.83;6.87;;;;;;;;;;5047349;28;20535;-67
2022/02/13 01:09:57;;;;;;;7.60;5.77;;;;;;;;;;5029041;28;20249;-69
2022/02/13 01:12:23;;;;;;;9.33;6.33;;;;;;;;;;5051134;28;20228;-67
2022/02/13 01:14:48;;;;;;;10.53;6.03;;;;;;;;;;5049068;28;20206;-67
2022/02/13 01:17:13;;;;;;;11.83;6.80;;;;;;;;;;5048414;28;20186;-67
2022/02/13 01:19:38;;;;;;;8.63;6.47;;;;;;;;;;5051513;28;20236;-68
2022/02/13 01:22:07;;;;;;;12.10;6.20;;;;;;;;;;5050489;28;20451;-68
2022/02/13 01:24:32;;;;;;;12.60;7.13;;;;;;;;;;5033137;28;20231;-68
2022/02/13 01:26:58;;;;;;;12.03;7.07;;;;;;;;;;5051645;28;20252;-69
2022/02/13 01:29:23;;;;;;;10.57;5.93;;;;;;;;;;5051838;28;20200;-69
2022/02/13 01:31:49;;;;;;;10.30;5.70;;;;;;;;;;5051476;28;20169;-68
2022/02/13 01:34:18;;;;;;;8.43;5.87;;;;;;;;;;5046296;28;20185;-69
2022/02/13 01:36:43;;;;;;;12.07;5.90;;;;;;;;;;5049866;28;20185;-69
2022/02/13 01:39:11;;;;;;;14.80;6.37;;;;;;;;;;5050438;28;20216;-69
2022/02/13 01:41:36;;;;;;;12.30;6.80;;;;;;;;;;5032479;28;20174;-68
2022/02/13 01:44:01;;;;;;;8.10;5.87;;;;;;;;;;5050617;28;20396;-69
2022/02/13 01:46:26;;;;;;;11.90;7.20;;;;;;;;;;5050879;28;20197;-69
2022/02/13 01:48:51;;;;;;;10.30;6.57;;;;;;;;;;5050926;28;20204;-68
2022/02/13 01:51:17;;;;;;;17.70;5.87;;;;;;;;;;5049808;28;20178;-68
2022/02/13 01:53:42;;;;;;;9.63;5.60;;;;;;;;;;5050424;28;20575;-68
2022/02/13 01:56:08;;;;;;;9.97;6.27;;;;;;;;;;5050773;28;20178;-68
2022/02/13 01:58:33;;;;;;;10.60;6.80;;;;;;;;;;5050871;28;20194;-68
2022/02/13 02:00:58;;;;;;;10.93;6.77;;;;;;;;;;5050681;28;20169;-67
2022/02/13 02:03:24;;;;;;;10.13;6.07;;;;;;;;;;5048007;28;20182;-67
2022/02/13 02:05:49;;;;;;;12.73;7.03;;;;;;;;;;5045327;28;20276;-68
2022/02/13 02:08:14;;;;;;;8.40;5.67;;;;;;;;;;5045401;28;20228;-68
2022/02/13 02:10:41;;;;;;;11.07;6.70;;;;;;;;;;5037376;28;20181;-67
2022/02/13 02:13:06;;;;;;;12.93;6.17;;;;;;;;;;5046645;28;20239;-68
2022/02/13 02:15:31;;;;;;;9.57;6.17;;;;;;;;;;5043776;28;20178;-67
2022/02/13 02:17:56;;;;;;;10.13;6.40;;;;;;;;;;5062100;22;20186;-68
2022/02/13 02:20:22;;;;;;;14.40;6.53;;;;;;;;;;5028401;28;22003;-68
2022/02/13 02:22:48;;;;;;;12.33;5.77;;;;;;;;;;5048108;28;20184;-67
2022/02/13 02:25:13;;;;;;;9.97;5.93;;;;;;;;;;5047961;28;20817;-68
2022/02/13 02:27:38;;;;;;;10.83;6.17;;;;;;;;;;5029475;28;20235;-68
2022/02/13 02:30:04;;;;;;;9.93;5.27;;;;;;;;;;5048479;28;20182;-68
2022/02/13 02:32:29;;;;;;;10.27;5.83;;;;;;;;;;5024169;28;20280;-68
2022/02/13 02:34:54;;;;;;;13.63;6.23;;;;;;;;;;5049005;28;20181;-68
2022/02/13 02:37:19;;;;;;;10.57;5.77;;;;;;;;;;5043702;28;20670;-68
2022/02/13 02:39:44;;;;;;;11.60;6.50;;;;;;;;;;5047679;28;20202;-68
2022/02/13 02:42:13;;;;;;;8.13;5.43;;;;;;;;;;5042140;28;20662;-69
2022/02/13 02:44:38;;;;;;;9.23;5.53;;;;;;;;;;5045067;28;20674;-68
2022/02/13 02:47:03;;;;;;;9.30;5.50;;;;;;;;;;5047498;28;20269;-68
2022/02/13 02:49:28;;;;;;;9.60;6.73;;;;;;;;;;5043505;28;20282;-68
2022/02/13 02:51:54;;;;;;;15.23;6.50;;;;;;;;;;5044711;28;20631;-67
2022/02/13 02:54:19;;;;;;;12.77;6.30;;;;;;;;;;5045426;28;20273;-68
2022/02/13 02:56:44;;;;;;;9.20;5.87;;;;;;;;;;5048373;28;20178;-67
2022/02/13 02:59:09;;;;;;;7.97;6.23;;;;;;;;;;5048527;28;20202;-68
2022/02/13 03:01:34;;;;;;;11.17;6.10;;;;;;;;;;5048308;28;20181;-67
2022/02/13 03:04:00;;;;;;;11.90;5.90;;;;;;;;;;5045622;28;20324;-68
2022/02/13 03:06:25;;;;;;;12.60;6.03;;;;;;;;;;5051813;28;20715;-67
2022/02/13 03:08:50;;;;;;;9.37;5.77;;;;;;;;;;5056725;28;20263;-69
2022/02/13 03:11:15;;;;;;;10.13;5.87;;;;;;;;;;5055200;28;20836;-67
2022/02/13 03:13:41;;;;;;;9.20;6.17;;;;;;;;;;5034274;28;20174;-68
2022/02/13 03:16:06;;;;;;;8.93;5.43;;;;;;;;;;5027859;28;20231;-67
2022/02/13 03:18:31;;;;;;;10.07;5.70;;;;;;;;;;5051802;28;20217;-68
2022/02/13 03:21:00;;;;;;;11.10;5.60;;;;;;;;;;5054621;28;20197;-68
2022/02/13 03:23:26;;;;;;;10.07;5.97;;;;;;;;;;5049202;28;20258;-68
2022/02/13 03:25:51;;;;;;;11.57;6.30;;;;;;;;;;5034518;28;20264;-68
2022/02/13 03:28:16;;;;;;;10.60;6.33;;;;;;;;;;5052239;28;20288;-67
2022/02/13 03:30:42;;;;;;;9.53;5.87;;;;;;;;;;5052478;28;20214;-68
2022/02/13 03:33:07;;;;;;;12.80;6.80;;;;;;;;;;5051221;28;20643;-68
2022/02/13 03:35:32;;;;;;;11.73;6.07;;;;;;;;;;5048651;28;20185;-68
2022/02/13 03:37:57;;;;;;;14.13;5.77;;;;;;;;;;5051496;28;20205;-68
2022/02/13 03:40:22;;;;;;;11.30;6.07;;;;;;;;;;5048690;28;20205;-69
2022/02/13 03:42:48;;;;;;;8.33;5.67;;;;;;;;;;5052237;28;20570;-68
2022/02/13 03:45:13;;;;;;;7.90;5.00;;;;;;;;;;5038609;28;20216;-68
2022/02/13 03:47:39;;;;;;;13.27;5.70;;;;;;;;;;5032254;28;20169;-68
2022/02/13 03:50:05;;;;;;;12.23;6.07;;;;;;;;;;5048738;28;20181;-68
2022/02/13 03:52:30;;;;;;;8.23;5.57;;;;;;;;;;5032368;28;20231;-68
2022/02/13 03:54:55;;;;;;;9.00;5.33;;;;;;;;;;5053154;28;20174;-68
2022/02/13 03:57:20;;;;;;;8.87;4.97;;;;;;;;;;5024857;28;20658;-68
2022/02/13 03:59:46;;;;;;;8.93;5.07;;;;;;;;;;5050554;28;20648;-68
2022/02/13 04:02:11;;;;;;;13.30;6.07;;;;;;;;;;5044415;28;20182;-68
2022/02/13 04:04:36;;;;;;;8.23;5.17;;;;;;;;;;5044847;28;20209;-69
2022/02/13 04:07:01;;;;;;;7.83;5.47;;;;;;;;;;5045719;28;20178;-67
2022/02/13 04:09:26;;;;;;;9.63;5.33;;;;;;;;;;5048483;28;20198;-68
2022/02/13 04:11:52;;;;;;;10.23;5.23;;;;;;;;;;5044554;28;20173;-68
2022/02/13 04:14:17;;;;;;;10.33;6.60;;;;;;;;;;5047055;28;20671;-67
2022/02/13 04:16:42;;;;;;;10.07;6.00;;;;;;;;;;5044966;28;20264;-68
2022/02/13 04:19:07;;;;;;;8.47;4.90;;;;;;;;;;5048376;28;20554;-68
2022/02/13 04:21:32;;;;;;;9.53;5.27;;;;;;;;;;5049802;28;20190;-68
2022/02/13 04:23:57;;;;;;;9.77;5.03;;;;;;;;;;5048583;28;20284;-68
2022/02/13 04:26:23;;;;;;;10.13;6.00;;;;;;;;;;5049614;28;20179;-68
2022/02/13 04:28:48;;;;;;;7.47;5.23;;;;;;;;;;5046553;28;20249;-68
2022/02/13 04:31:13;;;;;;;9.77;5.60;;;;;;;;;;5043807;28;20182;-68
2022/02/13 04:33:38;;;;;;;9.53;6.47;;;;;;;;;;5050858;28;20223;-68
2022/02/13 04:36:04;;;;;;;8.63;4.83;;;;;;;;;;5050432;28;20643;-67
2022/02/13 04:38:29;;;;;;;9.77;5.47;;;;;;;;;;5050610;28;20197;-68
2022/02/13 04:40:54;;;;;;;7.97;4.90;;;;;;;;;;5050462;28;20177;-68
2022/02/13 04:43:19;;;;;;;11.50;5.70;;;;;;;;;;5050510;28;20182;-68
2022/02/13 04:45:44;;;;;;;8.20;5.73;;;;;;;;;;5048915;28;20683;-68
2022/02/13 04:48:09;;;;;;;13.67;5.53;;;;;;;;;;5048212;28;20675;-68
2022/02/13 04:50:35;;;;;;;11.77;6.17;;;;;;;;;;5050235;28;20173;-68
2022/02/13 04:53:00;;;;;;;8.30;5.73;;;;;;;;;;5049070;28;20532;-67
2022/02/13 04:55:25;;;;;;;11.73;6.33;;;;;;;;;;5028787;28;20205;-68
2022/02/13 04:57:51;;;;;;;13.30;6.17;;;;;;;;;;5045969;28;20189;-68
2022/02/13 05:00:17;;;;;;;9.53;5.47;;;;;;;;;;5049515;28;20216;-68
2022/02/13 05:02:42;;;;;;;7.33;4.53;;;;;;;;;;5043755;28;20686;-68
2022/02/13 05:05:08;;;;;;;8.80;5.80;;;;;;;;;;5049371;28;20210;-68
2022/02/13 05:07:33;;;;;;;13.07;7.57;;;;;;;;;;5047721;28;20177;-68
2022/02/13 05:09:58;;;;;;;11.00;5.57;;;;;;;;;;5044976;28;20413;-70
2022/02/13 05:12:24;;;;;;;10.03;5.47;;;;;;;;;;5041273;28;20661;-67
2022/02/13 05:14:49;;;;;;;10.30;5.83;;;;;;;;;;5046859;28;20210;-68
2022/02/13 05:17:15;;;;;;;8.23;5.20;;;;;;;;;;5050226;28;20180;-68
2022/02/13 05:19:40;;;;;;;10.77;5.83;;;;;;;;;;5047400;28;20213;-68
2022/02/13 05:22:06;;;;;;;9.87;5.73;;;;;;;;;;5050824;28;20184;-68
2022/02/13 05:24:35;;;;;;;10.37;5.63;;;;;;;;;;5046247;28;20201;-67
2022/02/13 05:27:01;;;;;;;12.20;6.77;;;;;;;;;;5043334;28;20550;-66
2022/02/13 05:29:26;;;;;;;7.73;6.07;;;;;;;;;;5041689;28;20394;-67
2022/02/13 05:31:51;;;;;;;11.63;5.27;;;;;;;;;;5029372;28;20208;-67
2022/02/13 05:34:17;;;;;;;13.53;5.77;;;;;;;;;;5044401;28;20186;-67
2022/02/13 05:36:43;;;;;;;8.93;6.20;;;;;;;;;;5048751;28;20749;-67
2022/02/13 05:39:08;;;;;;;8.40;4.93;;;;;;;;;;5047820;28;20205;-69
2022/02/13 05:41:33;;;;;;;7.50;5.40;;;;;;;;;;5049818;28;20190;-67
2022/02/13 05:43:58;;;;;;;11.63;6.20;;;;;;;;;;5045947;28;20205;-67
2022/02/13 05:46:25;;;;;;;8.57;5.77;;;;;;;;;;5053022;28;20186;-68
2022/02/13 05:48:50;;;;;;;8.73;5.47;;;;;;;;;;5031209;28;20193;-66
2022/02/13 05:51:16;;;;;;;7.70;5.97;;;;;;;;;;5047752;28;20173;-67
2022/02/13 05:53:41;;;;;;;10.73;5.57;;;;;;;;;;5046003;28;20511;-67
2022/02/13 05:56:07;;;;;;;8.37;5.30;;;;;;;;;;5047873;28;20768;-67
2022/02/13 05:58:36;;;;;;;6.83;5.77;;;;;;;;;;5026014;28;20584;-67
2022/02/13 06:01:01;;;;;;;9.67;5.77;;;;;;;;;;5049759;28;20203;-67
2022/02/13 06:03:26;;;;;;;8.27;5.60;;;;;;;;;;5054960;28;20205;-67
2022/02/13 06:05:51;;;;;;;8.27;5.67;;;;;;;;;;5049078;28;20609;-67
2022/02/13 06:08:17;;;;;;;8.73;5.60;;;;;;;;;;5048855;28;20220;-67
2022/02/13 06:10:42;;;;;;;11.40;6.10;;;;;;;;;;5047639;28;20170;-66
2022/02/13 06:13:07;;;;;;;9.77;5.57;;;;;;;;;;5031215;28;20697;-67
2022/02/13 06:15:32;;;;;;;11.03;6.00;;;;;;;;;;5048002;28;20184;-67
2022/02/13 06:17:57;;;;;;;10.83;6.53;;;;;;;;;;5030364;28;20608;-68
2022/02/13 06:20:23;;;;;;;10.87;5.93;;;;;;;;;;5049333;28;20264;-66
2022/02/13 06:22:48;;;;;;;11.83;6.00;;;;;;;;;;5046445;28;20651;-67
2022/02/13 06:25:13;;;;;;;7.90;5.47;;;;;;;;;;5049398;28;20694;-67
2022/02/13 06:27:38;;;;;;;7.80;5.67;;;;;;;;;;5048851;28;20190;-67
2022/02/13 06:30:04;;;;;;;12.23;5.47;;;;;;;;;;5045339;28;20695;-67
2022/02/13 06:32:29;;;;;;;8.40;5.33;;;;;;;;;;5030617;28;20174;-67
2022/02/13 06:34:54;;;;;;;7.40;5.50;;;;;;;;;;5044324;28;20199;-68
2022/02/13 06:37:19;;;;;;;7.17;5.37;;;;;;;;;;5050471;28;20201;-67
2022/02/13 06:39:44;;;;;;;9.07;5.00;;;;;;;;;;5053514;28;20193;-67
2022/02/13 06:42:09;;;;;;;8.37;5.97;;;;;;;;;;5052790;28;20522;-68
2022/02/13 06:44:35;;;;;;;9.23;5.47;;;;;;;;;;5052590;28;20207;-68
2022/02/13 06:47:00;;;;;;;7.33;5.40;;;;;;;;;;5050691;28;20239;-68
2022/02/13 06:49:25;;;;;;;7.63;5.20;;;;;;;;;;5052054;28;20287;-67
2022/02/13 06:51:50;;;;;;;8.00;5.07;;;;;;;;;;5047376;28;20558;-68
2022/02/13 06:54:15;;;;;;;9.57;5.50;;;;;;;;;;5050538;28;20277;-68
2022/02/13 06:56:40;;;;;;;8.00;5.37;;;;;;;;;;5045671;28;20177;-68
2022/02/13 06:59:06;;;;;;;10.33;5.47;;;;;;;;;;5051555;28;20197;-67
2022/02/13 07:01:31;;;;;;;9.03;5.60;;;;;;;;;;5041465;28;20221;-67
2022/02/13 07:03:56;;;;;;;10.13;5.10;;;;;;;;;;5047313;28;20202;-66
2022/02/13 07:06:21;;;;;;;10.43;5.83;;;;;;;;;;5053518;28;20266;-67
2022/02/13 07:08:46;;;;;;;10.60;5.53;;;;;;;;;;5056921;28;20197;-67
2022/02/13 07:11:11;;;;;;;8.23;5.03;;;;;;;;;;5037352;28;20599;-68
2022/02/13 07:13:37;;;;;;;9.13;5.73;;;;;;;;;;5058561;28;20173;-67
2022/02/13 07:16:02;;;;;;;9.70;5.43;;;;;;;;;;5036533;28;20600;-67
2022/02/13 07:18:27;;;;;;;9.03;5.30;;;;;;;;;;5051661;28;20205;-66
2022/02/13 07:20:53;;;;;;;9.73;5.40;;;;;;;;;;5050880;28;20197;-67
2022/02/13 07:23:18;;;;;;;7.90;4.80;;;;;;;;;;5031418;28;20177;-67
2022/02/13 07:25:43;;;;;;;8.13;5.10;;;;;;;;;;5034221;28;20188;-67
2022/02/13 07:30:52;;;;;;;7.43;4.77;;;;;;;;;;5050596;28;20765;-66
2022/02/13 07:33:17;;;;;;;9.10;5.13;;;;;;;;;;5054418;28;20269;-67
2022/02/13 07:35:43;;;;;;;11.23;5.10;;;;;;;;;;5050198;28;20166;-67
2022/02/13 07:38:09;;;;;;;7.53;5.17;;;;;;;;;;5050815;28;20581;-67
2022/02/13 07:40:34;;;;;;;9.73;4.50;;;;;;;;;;5051534;28;20178;-66
2022/02/13 07:42:59;;;;;;;10.63;5.47;;;;;;;;;;5029866;28;20181;-68
2022/02/13 07:45:24;;;;;;;7.47;5.47;;;;;;;;;;5050461;28;20296;-66
2022/02/13 07:47:49;;;;;;;10.07;5.53;;;;;;;;;;5048644;28;20586;-67
2022/02/13 07:50:15;;;;;;;7.23;5.30;;;;;;;;;;5051295;28;20170;-67
2022/02/13 07:52:40;;;;;;;7.97;5.00;;;;;;;;;;5033129;28;20359;-67
2022/02/13 07:55:05;;;;;;;9.30;4.80;;;;;;;;;;5051079;28;20267;-67
2022/02/13 07:57:31;;;;;;;9.83;5.20;;;;;;;;;;5051309;28;20197;-68
2022/02/13 07:59:56;;;;;;;9.27;5.07;;;;;;;;;;5049397;28;20617;-68
2022/02/13 08:02:21;;;;;;;7.03;4.77;;;;;;;;;;5044099;28;20515;-69
2022/02/13 08:04:47;;;;;;;7.20;5.23;;;;;;;;;;5048538;28;20198;-68
2022/02/13 08:07:12;;;;;;;7.40;5.33;;;;;;;;;;5047973;28;20169;-67
2022/02/13 08:09:37;;;;;;;7.70;4.60;;;;;;;;;;5049272;28;20392;-68
2022/02/13 08:12:02;;;;;;;9.03;5.50;;;;;;;;;;5053798;28;20178;-67
2022/02/13 08:14:27;;;;;;;8.03;5.13;;;;;;;;;;5049585;28;20395;-68
2022/02/13 08:16:53;;;;;;;9.17;4.77;;;;;;;;;;5052240;28;20173;-68
2022/02/13 08:19:18;;;;;;;7.90;5.17;;;;;;;;;;5061626;22;20258;-66
2022/02/13 08:21:43;;;;;;;5.63;4.27;;;;;;;;;;5055670;28;20188;-68
2022/02/13 08:24:08;;;;;;;6.47;5.03;;;;;;;;;;5047352;28;20201;-68
2022/02/13 08:26:33;;;;;;;9.10;5.23;;;;;;;;;;5051683;28;20269;-67
2022/02/13 08:29:00;;;;;;;9.67;5.67;;;;;;;;;;5032814;28;20208;-68
2022/02/13 08:31:25;;;;;;;9.13;6.33;;;;;;;;;;5044200;28;20261;-68
2022/02/13 08:33:51;;;;;;;8.37;4.93;;;;;;;;;;5049527;28;20269;-68
2022/02/13 08:36:16;;;;;;;8.20;5.10;;;;;;;;;;5045499;28;20187;-67
2022/02/13 08:38:41;;;;;;;7.07;4.87;;;;;;;;;;5049148;28;20618;-68
2022/02/13 08:41:07;;;;;;;10.13;5.70;;;;;;;;;;5035060;28;20192;-67
2022/02/13 08:43:33;;;;;;;7.60;4.90;;;;;;;;;;5029620;28;20188;-68
2022/02/13 08:45:58;;;;;;;6.80;5.10;;;;;;;;;;5048877;28;20180;-68
2022/02/13 08:48:23;;;;;;;8.20;5.00;;;;;;;;;;5047143;28;20202;-68
2022/02/13 08:50:48;;;;;;;6.63;5.33;;;;;;;;;;5048848;28;20179;-68
2022/02/13 08:53:14;;;;;;;7.83;5.77;;;;;;;;;;5046052;28;20644;-68
2022/02/13 08:55:40;;;;;;;8.07;5.50;;;;;;;;;;5043577;28;20190;-69
2022/02/13 08:58:06;;;;;;;8.77;6.27;;;;;;;;;;5050435;28;20193;-68
2022/02/13 09:00:31;;;;;;;8.33;5.17;;;;;;;;;;5045996;28;20174;-69
2022/02/13 09:02:58;;;;;;;7.77;5.37;;;;;;;;;;5050609;28;20595;-68
2022/02/13 09:05:23;;;;;;;9.23;5.57;;;;;;;;;;5031370;28;20213;-68
2022/02/13 09:07:48;;;;;;;6.50;5.23;;;;;;;;;;5050871;28;20265;-68
2022/02/13 09:10:14;;;;;;;6.13;4.90;;;;;;;;;;5047977;28;20683;-68
2022/02/13 09:12:39;;;;;;;7.73;5.07;;;;;;;;;;5042151;28;20207;-68
2022/02/13 09:15:05;;;;;;;7.70;5.23;;;;;;;;;;5045578;28;20182;-68
2022/02/13 09:17:30;;;;;;;8.13;4.93;;;;;;;;;;5046709;28;20182;-68
2022/02/13 09:19:55;;;;;;;10.23;5.23;;;;;;;;;;5047419;28;20245;-68
2022/02/13 09:22:21;;;;;;;7.73;5.17;;;;;;;;;;5048319;28;20188;-69
2022/02/13 09:24:46;;;;;;;7.17;5.10;;;;;;;;;;5049916;28;20659;-69
2022/02/13 09:27:11;;;;;;;8.97;5.10;;;;;;;;;;5052350;28;20205;-69
2022/02/13 09:29:36;;;;;;;9.47;5.70;;;;;;;;;;5047806;28;20212;-69
2022/02/13 09:32:03;;;;;;;6.20;5.17;;;;;;;;;;5044962;28;20220;-69
2022/02/13 09:34:28;;;;;;;7.63;5.10;;;;;;;;;;5048567;28;20619;-68
2022/02/13 09:36:54;;;;;;;7.43;5.03;;;;;;;;;;5025742;28;20256;-68
2022/02/13 09:39:19;;;;;;;9.20;5.47;;;;;;;;;;5046943;28;20198;-69
2022/02/13 09:41:45;;;;;;;8.63;5.53;;;;;;;;;;5043255;28;20177;-69
2022/02/13 09:44:10;;;;;;;8.13;5.50;;;;;;;;;;5048752;28;20236;-69
2022/02/13 09:46:36;;;;;;;7.70;5.43;;;;;;;;;;5030826;28;20177;-68
2022/02/13 09:49:02;;;;;;;7.20;5.20;;;;;;;;;;5048534;28;20198;-68
2022/02/13 09:51:29;;;;;;;6.33;4.50;;;;;;;;;;5046558;28;20174;-68
2022/02/13 09:53:54;;;;;;;12.20;8.00;;;;;;;;;;5049075;28;20182;-68
2022/02/13 09:56:19;;;;;;;7.53;5.37;;;;;;;;;;5048613;28;20198;-68
2022/02/13 09:58:44;;;;;;;6.57;4.90;;;;;;;;;;5046983;28;20204;-68
2022/02/13 10:01:11;;;;;;;9.10;5.30;;;;;;;;;;5041442;28;20255;-69
2022/02/13 10:03:44;;;;;;;8.80;5.73;;;;;;;;;;5044936;28;20177;-68
2022/02/13 10:06:11;;;;;;;7.60;5.70;;;;;;;;;;5050815;28;20182;-69
2022/02/13 10:08:41;;;;;;;8.20;5.30;;;;;;;;;;5048785;28;20193;-69
2022/02/13 10:11:08;;;;;;;8.10;5.27;;;;;;;;;;5045372;28;20675;-68
2022/02/13 10:13:40;;;;;;;6.67;4.93;;;;;;;;;;5030186;28;20188;-69
2022/02/13 10:16:10;;;;;;;8.07;5.40;;;;;;;;;;5042416;28;20555;-68
2022/02/13 10:18:42;;;;;;;6.60;5.00;;;;;;;;;;5047060;28;20217;-69
2022/02/13 10:21:07;;;;;;;8.17;5.40;;;;;;;;;;5044867;28;20177;-68
2022/02/13 10:23:32;;;;;;;9.57;5.93;;;;;;;;;;5046852;28;20552;-68
2022/02/13 10:25:59;;;;;;;7.70;5.30;;;;;;;;;;5050333;28;20182;-69
2022/02/13 10:28:25;;;;;;;8.50;5.27;;;;;;;;;;5050151;28;20189;-68
2022/02/13 10:30:52;;;;;;;10.70;5.53;;;;;;;;;;5050485;28;20252;-69
2022/02/13 10:33:17;;;;;;;10.93;7.47;;;;;;;;;;5025139;28;20202;-69
2022/02/13 10:36:00;;;;;;;6.97;5.13;;;;;;;;;;5041776;28;20205;-68
2022/02/13 10:38:27;;;;;;;9.13;5.97;;;;;;;;;;5043025;28;20674;-68
2022/02/13 10:40:53;;;;;;;7.07;5.77;;;;;;;;;;5047244;28;20186;-68
2022/02/13 10:43:18;;;;;;;6.67;5.23;;;;;;;;;;5049753;28;20273;-68
2022/02/13 10:45:44;;;;;;;7.80;5.70;;;;;;;;;;5051825;28;20194;-69
2022/02/13 10:48:10;;;;;;;6.90;5.10;;;;;;;;;;5029143;28;20552;-69
2022/02/13 10:50:36;;;;;;;9.43;5.30;;;;;;;;;;5048342;28;20178;-69
2022/02/13 10:53:02;;;;;;;7.43;5.80;;;;;;;;;;5050451;28;20556;-68
2022/02/13 10:55:27;;;;;;;6.73;5.40;;;;;;;;;;5042133;28;20189;-69
2022/02/13 10:57:54;;;;;;;6.80;4.87;;;;;;;;;;5041615;28;20196;-69
2022/02/13 11:00:19;;;;;;;7.33;5.40;;;;;;;;;;5046807;28;20186;-68
2022/02/13 11:02:45;;;;;;;7.13;5.13;;;;;;;;;;5047443;28;20545;-68
2022/02/13 11:05:10;;;;;;;9.97;5.20;;;;;;;;;;5046206;28;20206;-69
2022/02/13 11:07:40;;;;;;;7.27;5.07;;;;;;;;;;5048346;28;20650;-69
2022/02/13 11:10:08;;;;;;;7.57;5.50;;;;;;;;;;5043543;28;20221;-69
2022/02/13 11:12:34;;;;;;;6.57;5.33;;;;;;;;;;5032416;28;20170;-68
2022/02/13 11:15:18;;;;;;;6.13;5.00;;;;;;;;;;5039885;28;20242;-69
2022/02/13 11:17:44;;;;;;;8.63;5.00;;;;;;;;;;5043436;28;20265;-69
2022/02/13 11:20:10;;;;;;;8.23;5.40;;;;;;;;;;5039477;28;20652;-69
2022/02/13 11:22:36;;;;;;;7.63;5.20;;;;;;;;;;5043757;28;20184;-69
2022/02/13 11:25:01;;;;;;;6.77;4.73;;;;;;;;;;5047432;28;20694;-69
2022/02/13 11:27:46;;;;;;;7.73;5.10;;;;;;;;;;5050426;28;20181;-69
2022/02/13 11:30:12;;;;;;;10.23;4.90;;;;;;;;;;5052774;28;20331;-70
2022/02/13 11:32:39;;;;;;;7.67;4.77;;;;;;;;;;5048767;28;20256;-69
2022/02/13 11:35:05;;;;;;;5.77;4.80;;;;;;;;;;5033057;28;20181;-67
2022/02/13 11:37:41;;;;;;;6.60;5.17;;;;;;;;;;5042892;28;20555;-70
2022/02/13 11:40:07;;;;;;;9.70;5.83;;;;;;;;;;5050765;28;20281;-67
2022/02/13 11:42:36;;;;;;;8.70;5.30;;;;;;;;;;5049164;28;20666;-67
2022/02/13 11:45:16;;;;;;;6.73;4.30;;;;;;;;;;5055765;28;20200;-70
2022/02/13 11:47:41;;;;;;;7.37;4.87;;;;;;;;;;5052937;28;20223;-68
2022/02/13 11:50:07;;;;;;;6.30;4.97;;;;;;;;;;5050965;28;20288;-68
2022/02/13 11:52:36;;;;;;;5.60;5.00;;;;;;;;;;5049245;28;20169;-68
2022/02/13 11:55:05;;;;;;;6.70;4.83;;;;;;;;;;5048988;28;20177;-68
2022/02/13 11:57:33;;;;;;;5.57;4.27;;;;;;;;;;5049831;28;20201;-69
2022/02/13 11:59:58;;;;;;;7.90;4.60;;;;;;;;;;5037784;28;20194;-70
2022/02/13 12:02:35;;;;;;;7.43;4.70;;;;;;;;;;5047073;28;20560;-68
2022/02/13 12:05:10;;;;;;;6.80;4.67;;;;;;;;;;5045192;28;20201;-69
2022/02/13 12:07:42;;;;;;;5.60;4.30;;;;;;;;;;5050412;28;20201;-68
2022/02/13 12:10:18;;;;;;;6.37;4.80;;;;;;;;;;5051330;28;20197;-70
2022/02/13 12:12:44;;;;;;;6.77;5.07;;;;;;;;;;5050871;28;20547;-68
2022/02/13 12:15:11;;;;;;;5.23;4.73;;;;;;;;;;5048792;28;20188;-67
2022/02/13 12:17:36;;;;;;;6.07;4.70;;;;;;;;;;5050944;28;20181;-68
2022/02/13 12:20:04;;;;;;;6.90;5.50;;;;;;;;;;5047974;28;20243;-70
2022/02/13 12:22:29;;;;;;;7.27;5.17;;;;;;;;;;5051979;28;20177;-70
2022/02/13 12:24:57;;;;;;;6.90;5.17;;;;;;;;;;5047356;28;20591;-70
2022/02/13 12:27:22;;;;;;;7.33;5.63;;;;;;;;;;5047638;28;20276;-70
2022/02/13 12:29:54;;;;;;;7.33;5.13;;;;;;;;;;5045273;28;20285;-70
2022/02/13 12:32:23;;;;;;;5.70;4.20;;;;;;;;;;5051893;28;20185;-69
2022/02/13 12:34:58;;;;;;;6.70;5.23;;;;;;;;;;5049598;28;20208;-70
2022/02/13 12:37:40;;;;;;;6.30;5.30;;;;;;;;;;5052019;28;20189;-69
2022/02/13 12:40:08;;;;;;;5.97;4.67;;;;;;;;;;5047137;28;20268;-70
2022/02/13 12:42:35;;;;;;;6.67;4.53;;;;;;;;;;5051582;28;20178;-69
2022/02/13 12:45:02;;;;;;;6.70;5.13;;;;;;;;;;5049914;28;20583;-70
2022/02/13 12:47:29;;;;;;;6.53;4.57;;;;;;;;;;5039106;28;20190;-70
2022/02/13 12:49:54;;;;;;;7.60;4.77;;;;;;;;;;5046533;28;20340;-69
2022/02/13 12:52:22;;;;;;;6.13;4.93;;;;;;;;;;5050842;28;20272;-70
2022/02/13 12:54:48;;;;;;;7.90;4.70;;;;;;;;;;5033047;28;20718;-70
2022/02/13 12:57:17;;;;;;;8.13;5.30;;;;;;;;;;5051994;28;20316;-69
2022/02/13 12:59:42;;;;;;;7.77;5.20;;;;;;;;;;5048625;28;20193;-70
2022/02/13 13:02:26;;;;;;;6.13;5.20;;;;;;;;;;5048769;28;20193;-70
2022/02/13 13:04:51;;;;;;;6.23;4.83;;;;;;;;;;5044636;28;20194;-70
2022/02/13 13:07:17;;;;;;;5.93;4.60;;;;;;;;;;5048211;28;20187;-70
2022/02/13 13:09:43;;;;;;;6.17;4.40;;;;;;;;;;5032293;28;20204;-69
2022/02/13 13:12:15;;;;;;;7.97;5.00;;;;;;;;;;5048648;28;20177;-69
2022/02/13 13:14:40;;;;;;;6.43;4.97;;;;;;;;;;5040028;28;20182;-67
2022/02/13 13:17:06;;;;;;;6.20;4.37;;;;;;;;;;5046790;28;20181;-69
2022/02/13 13:19:32;;;;;;;4.63;4.10;;;;;;;;;;5044358;28;20284;-68
2022/02/13 13:21:58;;;;;;;5.73;4.50;;;;;;;;;;5027561;28;20674;-69
2022/02/13 13:24:26;;;;;;;6.50;4.47;;;;;;;;;;5043915;28;20474;-70
2022/02/13 13:26:58;;;;;;;5.53;4.60;;;;;;;;;;5029999;28;20181;-70
2022/02/13 13:29:25;;;;;;;6.70;5.40;;;;;;;;;;5028950;28;20335;-69
2022/02/13 13:32:03;;;;;;;6.10;4.43;;;;;;;;;;5051039;28;20170;-69
2022/02/13 13:34:29;;;;;;;6.67;3.40;;;;;;;;;;5046372;28;20668;-69
2022/02/13 13:36:55;;;;;;;6.17;4.60;;;;;;;;;;5046772;28;20206;-68
2022/02/13 13:39:34;;;;;;;6.53;4.63;;;;;;;;;;5043358;28;20198;-70
2022/02/13 13:42:10;;;;;;;5.70;4.20;;;;;;;;;;5044184;28;20185;-71
2022/02/13 13:44:35;;;;;;;6.43;5.73;;;;;;;;;;5046352;28;20713;-68
2022/02/13 13:47:00;;;;;;;5.10;4.10;;;;;;;;;;5046526;28;20215;-71
2022/02/13 13:49:27;;;;;;;6.27;4.80;;;;;;;;;;5050987;28;20235;-67
2022/02/13 13:51:52;;;;;;;5.50;4.60;;;;;;;;;;5046240;28;20185;-68
2022/02/13 13:54:17;;;;;;;7.30;3.93;;;;;;;;;;5045622;28;20284;-70
2022/02/13 13:56:42;;;;;;;5.00;4.20;;;;;;;;;;5046706;28;20624;-69
2022/02/13 13:59:08;;;;;;;5.80;4.27;;;;;;;;;;5046883;28;20240;-68
2022/02/13 14:01:33;;;;;;;6.07;4.40;;;;;;;;;;5048731;28;20174;-68
2022/02/13 14:03:58;;;;;;;6.17;4.70;;;;;;;;;;5049281;28;20232;-68
2022/02/13 14:06:24;;;;;;;7.20;4.77;;;;;;;;;;5047535;28;20206;-67
2022/02/13 14:08:50;;;;;;;6.33;4.17;;;;;;;;;;5045662;28;20758;-68
2022/02/13 14:11:15;;;;;;;6.00;4.27;;;;;;;;;;5027478;28;20185;-68
2022/02/13 14:13:40;;;;;;;5.00;4.23;;;;;;;;;;5030196;28;20179;-68
2022/02/13 14:16:06;;;;;;;5.57;4.00;;;;;;;;;;5044724;28;20189;-68
2022/02/13 14:18:31;;;;;;;6.63;4.00;;;;;;;;;;5047506;28;20201;-69
2022/02/13 14:20:56;;;;;;;5.03;4.20;;;;;;;;;;5050522;28;20276;-69
2022/02/13 14:23:21;;;;;;;7.73;4.63;;;;;;;;;;5049384;28;20255;-69
2022/02/13 14:25:46;;;;;;;6.60;4.03;;;;;;;;;;5049882;28;20637;-68
2022/02/13 14:28:14;;;;;;;6.23;4.73;;;;;;;;;;5048057;28;20197;-69
2022/02/13 14:30:39;;;;;;;6.00;4.07;;;;;;;;;;5028923;28;20228;-68
2022/02/13 14:33:04;;;;;;;6.97;4.00;;;;;;;;;;5049403;28;20186;-68
2022/02/13 14:35:29;;;;;;;5.70;4.47;;;;;;;;;;5045459;28;20204;-68